Time;durP1;ratioP1;P1;durP2;ratioP2;P2;SDS_P1;SDS_P2;PMS_P1;PMS_P2;Temp;Humidity;BMP_temperature;BMP_pressure;BME280_temperature;BME280_humidity;BME280_pressure;Samples;Min_cycle;Max_cycle;Signal;HPM_P1;HPM_P2
2021/12/14 00:01:31;;;;;;;16.30;10.30;;;;;;;6.15;57.43;102416.09;4972451;28;20085;-66
2021/12/14 00:04:02;;;;;;;17.17;10.95;;;;;;;6.52;56.41;102411.00;4970685;28;20042;-69
2021/12/14 00:06:28;;;;;;;17.70;10.48;;;;;;;6.79;55.40;102412.78;4969874;28;20042;-69
2021/12/14 00:08:58;;;;;;;17.85;10.48;;;;;;;6.75;55.73;102411.03;4970849;28;20088;-68
2021/12/14 00:14:15;;;;;;;18.67;11.30;;;;;;;6.86;55.25;102414.53;4970835;28;20046;-68
2021/12/14 00:16:43;;;;;;;20.42;11.07;;;;;;;6.71;55.48;102398.94;4985386;28;20035;-69
2021/12/14 00:19:09;;;;;;;14.50;10.48;;;;;;;6.97;55.05;102411.03;4970747;28;20042;-68
2021/12/14 00:21:34;;;;;;;15.55;9.82;;;;;;;6.70;55.72;102417.97;4970044;28;20026;-69
2021/12/14 00:24:08;;;;;;;17.67;10.63;;;;;;;6.82;55.47;102423.19;4969687;28;20093;-64
2021/12/14 00:26:44;;;;;;;19.05;11.77;;;;;;;6.91;54.89;102423.19;4969184;28;20088;-64
2021/12/14 00:29:25;;;;;;;19.17;10.90;;;;;;;6.61;55.90;102429.22;4968053;28;20130;-64
2021/12/14 00:31:55;;;;;;;17.15;11.23;;;;;;;6.45;56.12;102425.72;4968083;28;20034;-64
2021/12/14 00:34:35;;;;;;;20.00;11.77;;;;;;;5.67;58.69;102428.00;4968517;28;20080;-64
2021/12/14 00:37:01;;;;;;;21.60;11.10;;;;;;;6.67;56.00;102428.38;4970718;28;20800;-68
2021/12/14 00:39:26;;;;;;;21.63;11.45;;;;;;;6.62;55.37;102432.66;4970482;28;20086;-68
2021/12/14 00:41:52;;;;;;;20.10;11.18;;;;;;;7.03;54.67;102424.91;4969752;28;20045;-68
2021/12/14 00:44:17;;;;;;;18.67;10.98;;;;;;;6.73;55.70;102436.19;4983942;28;20102;-69
2021/12/14 00:46:43;;;;;;;21.40;12.80;;;;;;;6.48;56.08;102438.72;4970003;28;20034;-64
2021/12/14 00:49:11;;;;;;;18.65;11.85;;;;;;;6.24;56.92;102443.84;4969088;28;20528;-65
2021/12/14 00:51:37;;;;;;;21.88;11.80;;;;;;;6.13;57.44;102433.41;4970424;28;20042;-64
2021/12/14 00:54:05;;;;;;;20.13;11.95;;;;;;;6.80;55.34;102435.31;4975194;28;20038;-65
2021/12/14 00:56:33;;;;;;;18.77;11.10;;;;;;;6.13;57.21;102435.09;4969898;28;20118;-65
2021/12/14 00:59:08;;;;;;;19.83;11.40;;;;;;;6.41;56.66;102434.38;4966080;28;20038;-67
2021/12/14 01:01:39;;;;;;;19.25;11.80;;;;;;;6.85;54.91;102433.56;4969170;28;20034;-65
2021/12/14 01:04:11;;;;;;;18.27;11.45;;;;;;;6.96;55.03;102438.78;4968426;28;20057;-66
2021/12/14 01:06:44;;;;;;;21.20;11.68;;;;;;;6.00;57.21;102440.25;4967805;28;20709;-66
2021/12/14 01:09:19;;;;;;;21.60;11.38;;;;;;;6.74;55.20;102447.44;4960716;28;20034;-65
2021/12/14 01:11:47;;;;;;;19.02;10.70;;;;;;;6.37;56.70;102445.59;4977701;28;20842;-66
2021/12/14 01:14:29;;;;;;;19.80;10.23;;;;;;;6.44;55.76;102449.09;4975535;28;20031;-66
2021/12/14 01:17:10;;;;;;;23.77;12.88;;;;;;;6.44;56.17;102449.09;4967139;28;20205;-69
2021/12/14 01:19:41;;;;;;;24.10;10.48;;;;;;;6.70;54.95;102439.59;4968995;28;20035;-68
2021/12/14 01:27:25;;;;;;;20.83;11.00;;;;;;;7.05;54.10;102419.72;4966592;28;20126;-67
2021/12/14 01:29:53;;;;;;;17.67;11.25;;;;;;;6.62;54.87;102415.38;4966952;28;20039;-69
2021/12/14 01:32:23;;;;;;;20.17;11.18;;;;;;;6.75;54.69;102403.22;4982366;28;20402;-68
2021/12/14 01:34:48;;;;;;;19.02;9.70;;;;;;;6.40;55.62;102396.28;4984572;28;20030;-68
2021/12/14 01:37:19;;;;;;;23.08;11.40;;;;;;;6.83;54.62;102388.50;4965133;28;20034;-69
2021/12/14 01:42:27;;;;;;;17.67;10.32;;;;;;;6.56;54.91;102380.72;4967651;28;20061;-69
2021/12/14 01:45:02;;;;;;;20.95;10.70;;;;;;;6.85;54.26;102375.53;4976265;28;20034;-69
2021/12/14 01:47:42;;;;;;;19.80;10.63;;;;;;;6.99;53.86;102376.38;4981684;28;20711;-70
2021/12/14 01:50:30;;;;;;;19.92;11.07;;;;;;;6.51;55.17;102375.53;4971114;28;20097;-70
2021/12/14 01:53:20;;;;;;;19.02;10.43;;;;;;;6.47;55.19;102378.97;4969009;28;20069;-69
2021/12/14 01:55:52;;;;;;;20.65;10.55;;;;;;;6.60;54.69;102382.47;4967722;28;20053;-71
2021/12/14 01:58:20;;;;;;;17.27;10.30;;;;;;;6.54;54.83;102383.31;4968851;28;20492;-65
2021/12/14 02:00:53;;;;;;;19.63;9.63;;;;;;;6.82;53.73;102379.00;4981676;28;20079;-65
2021/12/14 02:03:20;;;;;;;15.82;8.85;;;;;;;6.98;53.68;102366.00;4968624;28;20053;-65
2021/12/14 02:05:50;;;;;;;17.23;9.93;;;;;;;6.04;56.04;102366.75;4967181;28;20129;-65
2021/12/14 02:08:23;;;;;;;18.83;9.85;;;;;;;6.56;54.29;102378.13;4969592;28;20038;-65
2021/12/14 02:10:51;;;;;;;18.23;9.57;;;;;;;6.44;54.94;102378.94;4966724;28;20035;-66
2021/12/14 02:13:34;;;;;;;21.23;10.45;;;;;;;6.21;55.71;102366.75;4968701;28;20507;-66
2021/12/14 02:16:02;;;;;;;18.98;10.82;;;;;;;6.18;55.56;102360.72;4968938;28;20130;-65
2021/12/14 02:18:30;;;;;;;20.38;10.15;;;;;;;6.56;54.41;102362.53;4972482;28;20089;-66
2021/12/14 02:21:05;;;;;;;15.80;9.13;;;;;;;6.15;55.56;102355.50;4983632;28;20121;-66
2021/12/14 02:23:33;;;;;;;18.90;9.45;;;;;;;6.47;54.68;102361.66;4967303;28;20121;-67
2021/12/14 02:26:03;;;;;;;18.80;9.57;;;;;;;6.14;55.14;102352.03;4966314;28;20150;-66
2021/12/14 02:28:28;;;;;;;19.02;9.30;;;;;;;6.42;54.42;102363.38;4965118;28;20050;-66
2021/12/14 02:30:57;;;;;;;18.90;9.27;;;;;;;6.24;55.10;102363.34;4974558;28;20331;-70
2021/12/14 02:33:34;;;;;;;17.05;9.35;;;;;;;5.81;55.86;102369.25;4969666;28;20061;-70
2021/12/14 02:36:03;;;;;;;21.83;9.38;;;;;;;5.66;56.46;102369.19;4967913;28;20085;-70
2021/12/14 02:38:29;;;;;;;17.95;9.57;;;;;;;6.44;54.34;102366.84;4964651;28;20043;-70
2021/12/14 02:41:05;;;;;;;23.38;9.77;;;;;;;6.19;54.95;102365.91;4968611;28;20035;-70
2021/12/14 02:43:49;;;;;;;17.52;8.43;;;;;;;6.26;55.09;102371.97;4967404;28;20129;-70
2021/12/14 02:46:32;;;;;;;18.73;8.57;;;;;;;6.29;54.84;102375.47;4967437;28;20038;-66
2021/12/14 02:49:11;;;;;;;20.05;9.05;;;;;;;6.27;54.59;102371.13;4965377;28;20503;-66
2021/12/14 02:51:40;;;;;;;14.32;8.65;;;;;;;6.14;55.01;102365.03;4957290;28;20037;-66
2021/12/14 02:54:29;;;;;;;16.67;8.52;;;;;;;6.36;54.88;102373.75;4975007;28;20738;-66
2021/12/14 02:57:00;;;;;;;15.50;8.82;;;;;;;6.36;54.78;102371.16;4965714;28;20801;-66
2021/12/14 02:59:30;;;;;;;18.77;8.52;;;;;;;5.81;56.54;102378.75;4966184;28;20117;-66
2021/12/14 03:02:03;;;;;;;15.98;8.85;;;;;;;6.19;55.44;102371.09;4969124;28;20050;-66
2021/12/14 03:04:29;;;;;;;18.58;8.93;;;;;;;6.38;55.35;102373.78;4969185;28;20034;-67
2021/12/14 03:06:58;;;;;;;21.27;9.70;;;;;;;6.03;56.32;102359.78;4972257;28;20085;-67
2021/12/14 03:12:15;;;;;;;14.50;9.63;;;;;;;6.04;56.62;102343.38;4972468;28;20053;-67
2021/12/14 03:14:49;;;;;;;15.73;9.52;;;;;;;5.94;56.92;102344.19;4969178;28;20073;-66
2021/12/14 03:17:15;;;;;;;17.30;10.13;;;;;;;6.08;56.99;102339.94;4984600;28;20415;-67
2021/12/14 03:19:42;;;;;;;18.98;10.90;;;;;;;6.12;56.28;102335.59;4974118;28;20130;-66
2021/12/14 03:22:34;;;;;;;15.77;9.95;;;;;;;6.24;56.55;102335.63;4985619;28;20145;-65
2021/12/14 03:24:59;;;;;;;18.00;9.63;;;;;;;5.98;57.18;102337.31;4968988;28;20041;-65
2021/12/14 03:27:26;;;;;;;19.80;10.77;;;;;;;5.73;57.87;102331.19;4970125;28;20042;-65
2021/12/14 03:29:52;;;;;;;20.13;10.40;;;;;;;6.20;56.47;102336.50;4970318;28;20038;-65
2021/12/14 03:32:22;;;;;;;18.15;10.60;;;;;;;6.30;56.18;102345.19;4972731;28;20486;-65
2021/12/14 03:34:48;;;;;;;21.67;11.10;;;;;;;5.56;58.70;102339.75;4970909;28;20034;-66
2021/12/14 03:37:22;;;;;;;18.30;11.02;;;;;;;5.81;57.96;102332.91;4983768;28;20619;-66
2021/12/14 03:39:57;;;;;;;24.40;11.32;;;;;;;5.76;57.82;102336.38;4968598;28;20042;-65
2021/12/14 03:42:35;;;;;;;19.80;11.65;;;;;;;5.99;57.07;102328.66;4967601;28;20052;-67
2021/12/14 03:45:06;;;;;;;20.75;11.50;;;;;;;6.13;57.01;102332.16;4986798;28;20455;-66
2021/12/14 03:47:35;;;;;;;;;;;;;;;5.58;58.65;102325.06;4967622;28;20149;-66
2021/12/14 03:50:17;;;;;;;24.67;12.13;;;;;;;5.51;59.04;102331.09;4979194;28;20716;-66
2021/12/14 03:52:43;;;;;;;22.60;12.10;;;;;;;5.59;58.73;102338.88;4967091;28;20134;-65
2021/12/14 03:55:22;;;;;;;24.63;12.15;;;;;;;5.45;59.08;102331.91;4956489;28;20050;-66
2021/12/14 03:57:50;;;;;;;18.75;11.25;;;;;;;5.53;58.78;102329.38;4968431;28;20514;-65
2021/12/14 04:00:22;;;;;;;23.65;12.68;;;;;;;5.52;58.90;102343.19;4972250;28;20031;-66
2021/12/14 04:02:50;;;;;;;19.80;12.10;;;;;;;5.80;58.10;102326.00;4970204;28;20047;-66
2021/12/14 04:05:23;;;;;;;21.17;12.15;;;;;;;5.83;57.76;102338.13;4969170;28;20772;-64
2021/12/14 04:07:49;;;;;;;30.85;13.52;;;;;;;6.21;56.84;102342.53;4974950;28;20038;-64
2021/12/14 04:10:22;;;;;;;27.02;12.60;;;;;;;5.99;57.44;102344.22;4985753;28;21142;-64
2021/12/14 04:12:48;;;;;;;24.17;12.05;;;;;;;5.93;57.56;102337.28;4969303;28;20054;-64
2021/12/14 04:15:14;;;;;;;21.75;11.80;;;;;;;5.87;57.97;102332.94;4976615;28;20041;-64
2021/12/14 04:17:40;;;;;;;28.23;13.02;;;;;;;5.94;57.70;102339.00;4975691;28;20598;-67
2021/12/14 04:20:17;;;;;;;24.00;11.70;;;;;;;6.15;57.13;102337.31;4974707;28;20072;-67
2021/12/14 04:22:48;;;;;;;22.15;12.15;;;;;;;5.94;57.81;102326.03;4962729;28;20050;-68
2021/12/14 04:25:18;;;;;;;32.22;14.68;;;;;;;5.88;58.40;102331.19;4967417;28;20149;-66
2021/12/14 04:27:45;;;;;;;29.85;14.73;;;;;;;4.97;60.66;102333.38;4968321;28;20039;-65
2021/12/14 04:30:14;;;;;;;29.70;15.48;;;;;;;5.85;58.49;102326.03;4969954;28;20039;-67
2021/12/14 04:32:40;;;;;;;34.67;15.25;;;;;;;5.53;59.43;102329.38;4966647;28;20049;-66
2021/12/14 04:35:08;;;;;;;29.02;13.95;;;;;;;5.90;58.82;102334.66;4970136;28;20027;-66
2021/12/14 04:37:40;;;;;;;26.05;13.95;;;;;;;5.86;58.30;102327.78;4967211;28;20038;-66
2021/12/14 04:40:23;;;;;;;33.67;16.95;;;;;;;5.29;60.85;102324.06;4968955;28;20105;-66
2021/12/14 04:53:54;;;;;;;36.90;16.27;;;;;;;5.49;59.68;102316.38;4975515;28;20142;-65
2021/12/14 04:56:27;;;;;;;31.33;15.73;;;;;;;5.25;60.67;102318.84;4972822;28;20404;-66
2021/12/14 04:58:58;;;;;;;37.05;16.20;;;;;;;5.70;59.61;102323.38;4968154;28;20054;-66
2021/12/14 05:01:24;;;;;;;36.28;17.77;;;;;;;5.81;58.87;102314.75;4970155;28;20049;-66
2021/12/14 05:04:05;;;;;;;37.90;17.52;;;;;;;5.45;60.10;102318.09;4974812;28;20050;-66
2021/12/14 05:06:45;;;;;;;33.58;17.17;;;;;;;5.49;60.16;102316.38;4970499;28;20045;-65
2021/12/14 05:09:29;;;;;;;36.13;16.85;;;;;;;5.92;58.85;102325.16;4966739;28;20574;-65
2021/12/14 05:12:12;;;;;;;37.58;17.17;;;;;;;5.99;58.65;102326.91;4966714;28;20066;-66
2021/12/14 05:14:50;;;;;;;;;;;;;;;6.21;58.08;102324.38;4971531;28;20406;-66
2021/12/14 05:17:20;;;;;;;30.17;14.30;;;;;;;5.73;59.07;102316.47;4983472;28;19922;-66
2021/12/14 05:19:50;;;;;;;33.17;17.17;;;;;;;6.12;58.37;102319.16;4968188;28;20034;-66
2021/12/14 05:22:23;;;;;;;32.08;15.48;;;;;;;5.39;60.94;102318.03;4964771;28;20051;-66
2021/12/14 05:24:56;;;;;;;31.40;15.45;;;;;;;5.59;59.68;102308.66;4957920;28;20523;-67
2021/12/14 05:27:31;;;;;;;32.85;17.00;;;;;;;5.53;60.11;102308.63;4968771;28;20566;-67
2021/12/14 05:30:10;;;;;;;32.72;16.70;;;;;;;5.80;59.27;102318.22;4982283;28;20026;-66
2021/12/14 05:32:46;;;;;;;33.50;16.90;;;;;;;5.64;59.72;102322.50;4981636;28;20074;-66
2021/12/14 05:35:17;;;;;;;34.92;17.25;;;;;;;5.31;60.68;102330.13;4976122;28;20182;-66
2021/12/14 05:37:51;;;;;;;43.67;16.95;;;;;;;5.50;60.29;102329.34;4968309;28;20535;-66
2021/12/14 05:43:22;;;;;;;34.83;16.55;;;;;;;6.08;58.19;102328.66;4990667;23;20120;-70
2021/12/14 05:46:06;;;;;;;35.95;15.55;;;;;;;5.82;59.16;102323.44;4993341;28;20108;-72
2021/12/14 05:48:42;;;;;;;37.22;16.48;;;;;;;5.94;59.11;102323.44;4995393;28;20082;-72
2021/12/14 05:51:10;;;;;;;39.40;16.83;;;;;;;5.67;60.25;102332.00;4979203;28;20600;-72
2021/12/14 05:53:43;;;;;;;37.13;17.60;;;;;;;5.47;60.39;102334.50;4985932;28;20558;-72
2021/12/14 05:56:17;;;;;;;37.97;16.73;;;;;;;5.58;59.37;102332.84;4972131;28;20175;-71
2021/12/14 05:58:43;;;;;;;42.83;18.25;;;;;;;5.75;59.78;102334.63;4971236;28;20034;-72
2021/12/14 06:01:16;;;;;;;34.85;17.17;;;;;;;5.63;59.77;102336.31;4972887;28;20030;-73
2021/12/14 06:03:53;;;;;;;30.23;16.10;;;;;;;5.49;60.06;102340.59;4970262;28;20049;-72
2021/12/14 06:06:23;;;;;;;34.80;14.52;;;;;;;6.02;58.76;102345.09;4957702;28;20072;-72
2021/12/14 06:09:04;;;;;;;35.30;15.60;;;;;;;6.13;58.36;102339.06;4971700;28;20031;-72
2021/12/14 06:11:34;;;;;;;34.67;16.05;;;;;;;6.12;57.96;102339.94;4965300;28;20097;-72
2021/12/14 06:14:02;;;;;;;35.40;16.73;;;;;;;5.97;58.52;102336.44;4969866;28;20490;-72
2021/12/14 06:16:33;;;;;;;34.45;17.20;;;;;;;6.01;58.47;102327.78;4972469;28;20052;-71
2021/12/14 06:19:24;;;;;;;32.00;15.82;;;;;;;5.72;58.84;102329.44;4970961;28;20461;-71
2021/12/14 06:22:08;;;;;;;41.40;17.30;;;;;;;5.82;58.87;102336.41;4959895;28;20061;-71
2021/12/14 06:24:36;;;;;;;34.80;16.02;;;;;;;6.31;57.59;102340.84;4972026;28;20035;-71
2021/12/14 06:27:07;;;;;;;29.45;16.63;;;;;;;6.24;57.89;102350.34;4987392;28;20448;-70
2021/12/14 06:29:51;;;;;;;33.55;15.80;;;;;;;6.20;57.76;102348.59;4972057;28;20041;-71
2021/12/14 06:32:23;;;;;;;33.42;15.00;;;;;;;5.65;59.85;102339.78;4969527;28;20420;-71
2021/12/14 06:34:53;;;;;;;32.35;15.52;;;;;;;6.21;57.65;102350.31;4972283;28;20039;-69
2021/12/14 06:40:42;;;;;;;45.15;17.75;;;;;;;6.34;57.73;102364.25;4974773;28;20054;-72
2021/12/14 06:43:33;;;;;;;35.25;16.70;;;;;;;5.90;58.44;102365.81;4990216;28;20053;-72
2021/12/14 06:46:02;;;;;;;;;;;;;;;6.36;57.69;102370.31;4959590;28;20519;-72
2021/12/14 06:48:34;;;;;;;39.92;15.10;;;;;;;5.85;58.53;102367.53;4976895;28;19976;-72
2021/12/14 06:51:03;;;;;;;;;;;;;;;6.27;57.99;102365.94;4978442;28;20037;-72
2021/12/14 06:53:54;;;;;;;38.90;16.73;;;;;;;6.10;58.35;102363.28;4975128;28;20386;-72
2021/12/14 06:56:47;;;;;;;37.03;15.15;;;;;;;5.61;59.81;102358.81;4959918;28;20373;-73
2021/12/14 06:59:35;;;;;;;31.25;16.02;;;;;;;5.58;60.58;102363.97;4958303;28;20047;-73
2021/12/14 07:02:09;;;;;;;36.85;17.25;;;;;;;6.41;57.72;102364.25;4975697;28;20043;-73
2021/12/14 07:04:48;;;;;;;31.00;14.60;;;;;;;5.95;59.36;102366.72;4977106;28;20646;-73
2021/12/14 07:07:19;;;;;;;35.87;16.00;;;;;;;6.21;58.58;102363.31;4982484;28;20046;-75
2021/12/14 07:09:51;;;;;;;36.17;16.33;;;;;;;6.33;58.26;102370.28;4992509;28;20281;-71
2021/12/14 07:12:36;;;;;;;33.80;15.63;;;;;;;5.77;60.25;102364.94;4990373;28;20053;-72
2021/12/14 07:15:19;;;;;;;40.47;18.98;;;;;;;5.46;61.45;102366.50;4975788;28;20031;-72
2021/12/14 07:17:54;;;;;;;36.72;17.38;;;;;;;5.98;59.58;102369.31;4974466;28;20046;-71
2021/12/14 07:20:24;;;;;;;37.83;17.92;;;;;;;5.94;59.51;102367.56;4973998;28;20038;-72
2021/12/14 07:23:04;;;;;;;37.33;16.17;;;;;;;6.30;58.75;102384.13;4973941;28;20074;-71
2021/12/14 07:25:38;;;;;;;39.45;16.63;;;;;;;5.71;61.12;102384.78;4975322;28;20037;-71
2021/12/14 07:28:12;;;;;;;35.47;17.83;;;;;;;5.96;60.10;102389.19;4988769;28;20101;-69
2021/12/14 07:30:43;;;;;;;38.10;15.77;;;;;;;5.65;60.67;102390.78;4974741;28;20058;-70
2021/12/14 07:33:10;;;;;;;41.10;18.23;;;;;;;6.29;59.06;102392.81;4963315;28;20125;-69
2021/12/14 07:35:57;;;;;;;38.75;18.35;;;;;;;5.77;60.84;102390.88;4978677;28;20120;-71
2021/12/14 07:38:28;;;;;;;37.78;17.42;;;;;;;6.22;59.46;102393.63;4992530;28;20054;-71
2021/12/14 07:41:23;;;;;;;25.40;11.07;;;;;;;6.20;59.63;102395.34;4993546;28;20392;-71
2021/12/14 07:44:05;;;;;;;34.75;16.10;;;;;;;6.05;60.22;102401.34;4973252;28;20664;-68
2021/12/14 07:46:36;;;;;;;40.35;15.85;;;;;;;5.99;60.42;102412.56;4972422;28;20534;-68
2021/12/14 07:49:22;;;;;;;32.50;14.98;;;;;;;5.98;60.59;102420.34;4975661;28;20516;-70
2021/12/14 07:51:50;;;;;;;36.20;16.13;;;;;;;5.73;61.16;102421.97;4974948;28;20026;-68
2021/12/14 07:54:21;;;;;;;36.67;16.83;;;;;;;6.02;60.54;102422.97;4974702;28;20046;-68
2021/12/14 07:56:53;;;;;;;34.85;16.50;;;;;;;6.36;59.33;102417.91;4977552;28;20484;-70
2021/12/14 07:59:32;;;;;;;36.50;15.65;;;;;;;6.18;59.77;102425.63;4956258;28;20054;-68
2021/12/14 08:02:17;;;;;;;36.88;17.35;;;;;;;6.54;58.97;102432.66;4961144;28;20054;-68
2021/12/14 08:04:47;;;;;;;38.03;15.65;;;;;;;6.59;58.91;102436.13;4973908;28;20030;-68
2021/12/14 08:07:24;;;;;;;34.92;15.00;;;;;;;6.43;59.61;102435.22;4972267;28;20039;-68
2021/12/14 08:09:52;;;;;;;33.33;15.40;;;;;;;6.59;59.15;102435.28;4972185;28;20657;-68
2021/12/14 08:12:47;;;;;;;30.92;15.32;;;;;;;6.70;58.77;102436.16;4990719;28;20041;-69
2021/12/14 08:15:21;;;;;;;33.30;14.32;;;;;;;6.56;58.83;102435.28;4973341;28;20038;-70
2021/12/14 08:17:58;;;;;;;30.60;14.80;;;;;;;6.59;59.26;102441.31;4973184;28;20053;-70
2021/12/14 08:20:26;;;;;;;30.55;13.82;;;;;;;6.78;58.48;102438.78;4975340;28;20058;-67
2021/12/14 08:22:54;;;;;;;28.73;13.68;;;;;;;6.55;59.19;102436.13;4972842;28;20038;-71
2021/12/14 08:25:27;;;;;;;31.27;14.15;;;;;;;6.39;59.80;102436.09;4973389;28;20054;-68
2021/12/14 08:28:02;;;;;;;38.67;16.15;;;;;;;6.36;59.81;102449.06;4973354;28;20080;-68
2021/12/14 08:30:31;;;;;;;34.30;15.20;;;;;;;6.28;59.93;102456.84;4988551;28;20038;-70
2021/12/14 08:32:57;;;;;;;39.83;13.93;;;;;;;6.58;59.18;102459.53;4972809;28;20053;-70
2021/12/14 08:35:23;;;;;;;36.25;14.63;;;;;;;6.59;59.50;102456.91;4972339;28;20034;-68
2021/12/14 08:37:56;;;;;;;35.42;15.73;;;;;;;6.25;60.22;102454.19;4970778;28;20081;-68
2021/12/14 08:40:27;;;;;;;46.22;17.33;;;;;;;6.56;59.47;102456.06;4973378;28;20031;-68
2021/12/14 08:43:10;;;;;;;35.53;16.88;;;;;;;6.72;59.13;102457.81;4971307;28;20129;-70
2021/12/14 08:45:44;;;;;;;33.63;16.42;;;;;;;6.49;59.48;102461.22;4987935;28;20044;-68
2021/12/14 08:48:16;;;;;;;31.85;16.00;;;;;;;6.67;59.24;102462.13;4973217;28;20049;-68
2021/12/14 08:50:52;;;;;;;44.08;17.92;;;;;;;6.25;60.38;102450.75;4989730;28;20048;-69
2021/12/14 08:53:18;;;;;;;37.13;14.88;;;;;;;6.70;59.08;102454.34;4972226;28;20177;-69
2021/12/14 08:55:48;;;;;;;31.92;16.00;;;;;;;6.66;59.00;102452.59;4973225;28;20121;-69
2021/12/14 08:58:14;;;;;;;35.75;17.13;;;;;;;6.42;59.76;102454.28;4972781;28;20185;-69
2021/12/14 09:00:51;;;;;;;36.28;15.82;;;;;;;6.34;60.13;102450.78;4972628;28;20034;-69
2021/12/14 09:03:31;;;;;;;36.65;17.92;;;;;;;6.25;60.20;102440.34;4970734;28;20058;-68
2021/12/14 09:05:59;;;;;;;32.85;15.98;;;;;;;6.81;58.97;102430.97;4968086;28;20053;-68
2021/12/14 09:08:24;;;;;;;35.85;16.13;;;;;;;6.61;59.05;102434.41;4965985;28;20069;-68
2021/12/14 09:10:53;;;;;;;35.10;17.20;;;;;;;6.61;59.29;102438.75;4967601;28;20458;-68
2021/12/14 09:13:18;;;;;;;35.70;17.27;;;;;;;6.60;59.19;102437.03;4964630;28;20114;-69
2021/12/14 09:15:50;;;;;;;39.42;16.88;;;;;;;7.05;57.72;102437.91;4970740;28;20458;-68
2021/12/14 09:18:19;;;;;;;36.55;15.52;;;;;;;6.96;58.44;102445.72;4964185;28;20038;-69
2021/12/14 09:20:52;;;;;;;36.70;17.73;;;;;;;6.80;58.49;102450.91;4970147;28;20134;-69
2021/12/14 09:23:35;;;;;;;37.67;16.05;;;;;;;6.59;59.45;102446.53;4967844;28;20051;-68
2021/12/14 09:26:03;;;;;;;38.33;17.95;;;;;;;6.64;58.99;102449.13;4969982;28;20030;-69
2021/12/14 09:28:30;;;;;;;39.08;18.70;;;;;;;6.73;58.82;102451.75;4966814;28;20439;-68
2021/12/14 09:31:00;;;;;;;35.88;17.88;;;;;;;6.54;59.39;102453.44;4957700;28;20049;-68
2021/12/14 09:33:28;;;;;;;38.75;16.98;;;;;;;7.02;58.16;102458.69;4967124;28;20046;-68
2021/12/14 09:35:56;;;;;;;39.17;17.10;;;;;;;6.55;59.42;102462.09;4969838;28;20034;-69
2021/12/14 09:38:31;;;;;;;37.78;18.30;;;;;;;6.67;59.16;102465.59;4967421;28;20058;-70
2021/12/14 09:40:59;;;;;;;36.47;16.33;;;;;;;6.73;59.23;102461.25;4969419;28;20033;-70
2021/12/14 09:43:25;;;;;;;38.40;17.73;;;;;;;6.26;60.15;102455.06;4970200;28;20125;-69
2021/12/14 09:45:55;;;;;;;34.78;15.93;;;;;;;6.75;58.72;102468.19;4967274;28;20337;-69
2021/12/14 09:48:42;;;;;;;31.73;16.30;;;;;;;7.16;58.24;102466.53;4969498;28;20098;-68
2021/12/14 09:51:16;;;;;;;32.30;15.57;;;;;;;7.27;57.62;102468.25;4969052;28;20373;-68
2021/12/14 09:53:47;;;;;;;32.65;15.02;;;;;;;7.21;57.93;102463.03;4965155;28;20047;-67
2021/12/14 09:56:15;;;;;;;32.35;15.00;;;;;;;7.28;57.60;102469.97;4962933;28;20039;-69
2021/12/14 09:58:45;;;;;;;41.30;16.02;;;;;;;6.82;59.07;102469.97;4969028;28;20053;-69
2021/12/14 10:01:26;;;;;;;31.02;14.68;;;;;;;7.11;57.95;102463.91;4971258;28;20048;-69
2021/12/14 10:03:54;;;;;;;42.38;16.63;;;;;;;7.19;58.09;102469.97;4971095;28;21455;-69
2021/12/14 10:06:24;;;;;;;36.10;17.23;;;;;;;7.36;57.59;102476.91;4968216;28;20030;-68
2021/12/14 10:08:57;;;;;;;35.33;16.95;;;;;;;7.20;58.13;102476.03;4972489;28;20100;-68
2021/12/14 10:11:59;;;;;;;32.30;15.13;;;;;;;7.40;57.63;102478.63;4981979;28;20042;-68
2021/12/14 10:14:33;;;;;;;31.92;13.65;;;;;;;7.25;57.77;102482.97;4972377;28;20495;-69
2021/12/14 10:17:00;;;;;;;31.83;14.57;;;;;;;7.26;58.11;102482.09;4971038;28;20117;-69
2021/12/14 10:19:31;;;;;;;31.15;14.20;;;;;;;7.12;58.08;102484.69;4972646;28;20133;-69
2021/12/14 10:22:02;;;;;;;29.17;14.00;;;;;;;7.19;57.92;102489.91;4972065;28;20054;-69
2021/12/14 10:24:28;;;;;;;32.08;15.88;;;;;;;7.26;57.99;102487.28;4970542;28;20040;-69
2021/12/14 10:27:01;;;;;;;35.20;14.82;;;;;;;7.29;57.70;102492.50;4970831;28;20157;-68
2021/12/14 10:29:29;;;;;;;30.38;14.57;;;;;;;7.28;57.83;102485.56;4970929;28;20120;-70
2021/12/14 10:32:20;;;;;;;33.15;14.43;;;;;;;7.05;58.51;102488.16;4969206;28;20041;-70
2021/12/14 10:34:51;;;;;;;33.58;16.13;;;;;;;7.38;57.46;102485.56;4970759;28;20113;-70
2021/12/14 10:37:26;;;;;;;30.00;13.90;;;;;;;7.47;57.38;102486.44;4969967;28;20660;-70
2021/12/14 10:43:05;;;;;;;32.45;15.05;;;;;;;7.52;57.31;102483.81;4971502;28;20487;-70
2021/12/14 10:45:32;;;;;;;27.40;13.70;;;;;;;6.75;59.21;102491.59;4971809;28;20121;-68
2021/12/14 10:47:59;;;;;;;35.33;15.85;;;;;;;7.21;57.98;102499.44;4972302;28;20495;-66
2021/12/14 10:50:28;;;;;;;29.55;13.70;;;;;;;7.18;58.43;102496.00;4970814;28;20035;-69
2021/12/14 10:52:54;;;;;;;31.95;13.10;;;;;;;7.17;58.23;102497.69;4939297;28;20558;-66
2021/12/14 10:55:35;;;;;;;28.30;13.48;;;;;;;7.20;58.04;102502.03;4956127;28;20026;-68
2021/12/14 10:58:02;;;;;;;25.70;12.45;;;;;;;7.31;57.88;102495.97;4970331;28;20058;-67
2021/12/14 11:01:00;;;;;;;35.95;13.27;;;;;;;7.44;57.56;102495.97;4972439;28;20070;-68
2021/12/14 11:03:31;;;;;;;29.50;12.57;;;;;;;7.51;57.40;102502.88;4952672;28;20627;-67
2021/12/14 11:06:00;;;;;;;27.75;11.98;;;;;;;7.36;57.74;102506.38;4972050;28;20110;-67
2021/12/14 11:08:50;;;;;;;28.67;11.65;;;;;;;7.52;57.02;102504.63;4969259;28;20065;-67
2021/12/14 11:11:21;;;;;;;28.52;13.02;;;;;;;7.63;57.13;102507.25;4971229;28;20057;-67
2021/12/14 11:13:53;;;;;;;31.42;13.68;;;;;;;7.64;56.90;102504.63;4971880;28;20031;-70
2021/12/14 11:19:47;;;;;;;28.63;12.40;;;;;;;7.79;56.61;102492.47;4972911;28;21058;-68
2021/12/14 11:22:17;;;;;;;26.88;11.07;;;;;;;7.84;56.43;102488.13;4988312;28;20097;-68
2021/12/14 11:24:46;;;;;;;32.22;13.10;;;;;;;7.69;56.45;102487.28;4986857;28;20108;-67
2021/12/14 11:27:20;;;;;;;32.90;14.18;;;;;;;7.70;56.81;102488.16;4989096;28;20049;-67
2021/12/14 11:29:50;;;;;;;23.20;11.02;;;;;;;7.84;56.40;102495.94;4974191;28;20034;-68
2021/12/14 11:32:20;;;;;;;22.98;10.43;;;;;;;7.75;56.33;102491.59;4975635;28;20156;-68
2021/12/14 11:34:48;;;;;;;23.02;10.60;;;;;;;7.80;55.96;102489.00;4977356;28;20041;-68
2021/12/14 11:37:20;;;;;;;12.18;6.85;;;;;;;7.62;56.41;102490.75;4975052;28;20054;-67
2021/12/14 11:39:50;;;;;;;13.55;6.50;;;;;;;7.57;56.04;102492.50;4976105;28;20030;-68
2021/12/14 11:42:18;;;;;;;12.95;5.97;;;;;;;7.54;56.27;102487.28;4973524;28;20116;-68
2021/12/14 11:44:52;;;;;;;13.25;6.03;;;;;;;7.49;56.30;102489.91;4971515;28;20034;-68
2021/12/14 11:50:17;;;;;;;9.85;5.35;;;;;;;7.72;55.82;102489.03;4971770;28;20030;-68
2021/12/14 11:53:00;;;;;;;11.98;6.03;;;;;;;7.76;55.82;102489.88;4957736;28;20034;-68
2021/12/14 11:55:47;;;;;;;12.75;5.85;;;;;;;7.69;55.73;102486.41;4972426;28;20642;-70
2021/12/14 11:58:22;;;;;;;13.73;5.70;;;;;;;7.59;55.82;102493.38;4971559;28;20526;-66
2021/12/14 12:01:17;;;;;;;9.23;4.50;;;;;;;7.66;55.64;102487.28;4969581;28;20659;-66
2021/12/14 12:03:57;;;;;;;8.10;5.05;;;;;;;7.64;55.74;102494.22;4958518;28;20366;-67
2021/12/14 12:12:06;;;;;;;9.38;3.72;;;;;;;7.80;55.77;102487.28;4969840;28;20026;-67
2021/12/14 12:14:41;;;;;;;7.65;3.60;;;;;;;7.85;55.39;102485.53;4972746;28;20042;-67
2021/12/14 12:17:26;;;;;;;8.73;3.95;;;;;;;7.85;55.45;102487.25;4955475;28;20196;-68
2021/12/14 12:20:00;;;;;;;8.38;3.75;;;;;;;7.84;55.59;102490.72;4962372;28;20531;-67
2021/12/14 12:22:31;;;;;;;7.95;4.25;;;;;;;7.88;55.27;102492.44;4967384;28;20047;-68
2021/12/14 12:24:59;;;;;;;8.68;4.40;;;;;;;7.89;55.19;102494.16;4973541;28;20153;-68
2021/12/14 12:27:24;;;;;;;8.70;3.97;;;;;;;7.90;55.26;102499.38;4969553;28;20062;-67
2021/12/14 12:30:23;;;;;;;8.40;4.40;;;;;;;7.95;55.54;102504.56;4970663;28;20045;-67
2021/12/14 12:32:50;;;;;;;12.18;4.75;;;;;;;8.00;55.55;102492.41;4970876;28;20554;-67